Airfield :
LOGIN :

Register | Disclaimer

   EN    FR    IT 

 










Legend :    VFR   Marginal VFR   IFR   Intensive IFR   Very Intensive IFR
Visi :
Ceiling :
>= 8 km
>= 3000ft
5 to 8 km
1000 to 3000 ft
1500m to 5 km
500 to 1000 ft
800 to 1500m
200 to 500 ft
< 800m
< 200 ft
Symbols :   Thunderstorms  Fog  Heavy snow  Heavy precipitations  Wind > 20 kt
SIGMETs :     Misc.  Thunderstorms  Icing  Turbulence  Mountain Waves  Volcanic Ashes






- Airport Elevation : 137 ft


LIPS - Istrana AFB Treviso

CURRENT METAR :
  • 281555Z 32002KT 4000 BR SCT025 BKN035 08/06 Q1017 RMK BKN VIS MIN 4000 WIND THR26 26002KT WIND THR08 30002KT GRN

EXPIRED METARs :
  • 281455Z 26003KT 4000 BR SCT025 BKN035 08/05 Q1017 RMK BKN VIS MIN 4000 WIND THR26 20002KT WIND THR08 21002KT GRN
  • 281355Z 30003KT 4000 BR BKN028 08/04 Q1018 RMK BKN VIS MIN 4000 WIND THR26 24002KT WIND THR08 28001KT GRN

TAF TAF LIPS
Valid from the 28 at 15:00 until the 29 at 00:00 UTC


281400Z 2815/2824 33005KT 4000 BR BKN020
TEMPO 2815/2824 2000 BR
PROB30
TEMPO 2820/2824 0800 FG BKN003



MET'MAP, your aeronautical weather chart ! - Copyright ORBIFLY December 2007 - Disclaimer

ORBIFLY MET'MAP TEAM :

Programming & Development : Alexandra Zaïnal
Concept & original design : Baudouin d'Aumeries
Assistance for programming : Marc-Olivier Méhu
Technical & hardware support : Manuel Goepfert

Contact : metmap@orbifly.com




SOURCES & CREDITS :

   NOAA